createdAt,value
2018-11-13T00:04:28.738Z,18.97
2018-11-13T00:09:32.098Z,19.17
2018-11-13T00:14:35.477Z,19.60
2018-11-13T00:19:38.863Z,20.27
2018-11-13T00:24:42.241Z,20.23
2018-11-13T00:29:45.620Z,20.43
2018-11-13T00:34:48.982Z,20.57
2018-11-13T00:39:52.357Z,20.37
2018-11-13T00:44:56.056Z,20.27
2018-11-13T00:49:59.434Z,20.33
2018-11-13T00:55:03.163Z,20.40
2018-11-13T01:00:08.654Z,18.40
2018-11-13T01:05:13.952Z,18.07
2018-11-13T01:10:18.498Z,20.20
2018-11-13T01:15:21.958Z,20.27
2018-11-13T01:20:25.352Z,20.10
2018-11-13T01:25:28.711Z,19.07
2018-11-13T01:30:32.076Z,19.17
2018-11-13T01:35:35.442Z,19.90
2018-11-13T01:40:39.323Z,20.13
2018-11-13T01:45:42.702Z,20.03
2018-11-13T01:50:46.096Z,19.57
2018-11-13T01:55:49.474Z,21.10
2018-11-13T02:00:52.843Z,20.97
2018-11-13T02:05:56.197Z,21.17
2018-11-13T02:10:59.586Z,20.40
2018-11-13T02:16:03.077Z,21.33
2018-11-13T02:21:06.518Z,22.30
2018-11-13T02:26:09.964Z,20.93
2018-11-13T02:31:13.314Z,21.17
2018-11-13T02:36:16.943Z,20.80
2018-11-13T02:41:20.339Z,19.90
2018-11-13T02:46:23.783Z,21.13
2018-11-13T02:51:27.136Z,20.33
2018-11-13T02:56:30.560Z,21.63
2018-11-13T03:01:33.942Z,20.43
2018-11-13T03:06:37.316Z,20.87
2018-11-13T03:11:40.902Z,19.83
2018-11-13T03:16:44.300Z,19.57
2018-11-13T03:21:47.720Z,19.97
2018-11-13T03:26:51.152Z,18.47
2018-11-13T03:31:54.530Z,18.77
2018-11-13T03:36:59.137Z,18.87
2018-11-13T03:42:02.586Z,18.47
2018-11-13T03:47:06.382Z,19.20
2018-11-13T03:52:09.826Z,18.90
2018-11-13T03:57:13.246Z,19.57
2018-11-13T04:02:16.678Z,19.40
2018-11-13T04:07:20.265Z,19.07
2018-11-13T04:12:23.738Z,18.97
2018-11-13T04:17:27.122Z,19.73
2018-11-13T04:22:30.523Z,20.80
2018-11-13T04:27:33.904Z,20.57
2018-11-13T04:32:37.447Z,20.50
2018-11-13T04:37:40.816Z,20.57
2018-11-13T04:42:45.528Z,20.80
2018-11-13T04:47:49.523Z,22.37
2018-11-13T04:52:52.927Z,21.33
2018-11-13T04:57:56.291Z,21.53
2018-11-13T05:02:59.720Z,21.67
2018-11-13T05:08:03.094Z,22.13
2018-11-13T05:13:06.491Z,23.07
2018-11-13T05:18:09.870Z,22.37
2018-11-13T05:23:13.355Z,21.70
2018-11-13T05:28:16.700Z,22.73
2018-11-13T05:33:20.474Z,22.60
2018-11-13T05:38:23.951Z,22.17
2018-11-13T05:43:27.796Z,21.90
2018-11-13T05:48:31.402Z,21.03
2018-11-13T05:53:34.870Z,21.37
2018-11-13T05:58:38.387Z,21.93
2018-11-13T06:03:41.803Z,21.23
2018-11-13T06:08:45.421Z,20.77
2018-11-13T06:13:48.802Z,20.87
2018-11-13T06:18:52.167Z,21.43
2018-11-13T06:23:55.633Z,20.27
2018-11-13T06:28:58.997Z,20.77
2018-11-13T06:34:02.451Z,22.00
2018-11-13T06:39:09.133Z,21.17
2018-11-13T06:44:12.522Z,21.33
2018-11-13T06:49:16.066Z,21.73
2018-11-13T06:54:30.770Z,21.70
2018-11-13T06:59:34.199Z,23.17
2018-11-13T07:04:37.554Z,22.87
2018-11-13T07:09:40.925Z,22.43
2018-11-13T07:14:44.349Z,22.10
2018-11-13T07:19:47.736Z,23.50
2018-11-13T07:24:51.126Z,21.70
2018-11-13T07:29:55.212Z,21.60
2018-11-13T07:34:58.643Z,21.77
2018-11-13T07:40:02.167Z,21.30
2018-11-13T07:45:07.892Z,22.80
2018-11-13T07:50:12.602Z,21.67
2018-11-13T07:55:16.959Z,20.77
2018-11-13T08:00:22.715Z,21.57
2018-11-13T08:05:26.217Z,20.33
2018-11-13T08:10:29.590Z,19.67
2018-11-13T08:15:33.030Z,19.97
2018-11-13T08:20:36.411Z,20.07
2018-11-13T08:25:39.861Z,19.23
2018-11-13T08:30:43.194Z,19.60
2018-11-13T08:35:46.689Z,19.40
2018-11-13T08:40:50.072Z,19.57
2018-11-13T08:45:53.450Z,19.47
2018-11-13T08:50:57.004Z,20.37
2018-11-13T08:56:00.374Z,19.43
2018-11-13T09:01:03.759Z,19.67
2018-11-13T09:06:07.127Z,19.23
2018-11-13T09:11:10.660Z,19.80
2018-11-13T09:16:14.093Z,18.33
2018-11-13T09:21:17.518Z,19.50
2018-11-13T09:26:20.937Z,20.27
2018-11-13T09:31:24.424Z,18.93
2018-11-13T09:36:27.870Z,19.57
2018-11-13T09:41:31.278Z,21.00
2018-11-13T09:46:34.717Z,20.07
2018-11-13T09:51:38.147Z,21.13
2018-11-13T09:56:41.646Z,20.63
2018-11-13T10:01:45.596Z,21.17
2018-11-13T10:06:48.812Z,20.60
2018-11-13T10:11:52.163Z,21.57
2018-11-13T10:16:55.686Z,21.17
2018-11-13T10:21:59.098Z,21.60
2018-11-13T10:27:02.512Z,20.97
2018-11-13T10:32:06.125Z,21.43
2018-11-13T10:37:09.595Z,23.33
2018-11-13T10:42:12.966Z,22.07
2018-11-13T10:47:16.370Z,21.60
2018-11-13T10:52:19.939Z,22.20
2018-11-13T10:57:23.557Z,21.50
2018-11-13T11:02:38.967Z,22.10
2018-11-13T11:07:42.285Z,22.67
2018-11-13T11:12:45.928Z,23.00
2018-11-13T11:17:49.426Z,24.40
2018-11-13T11:22:52.992Z,23.90
2018-11-13T11:27:56.396Z,22.83
2018-11-13T11:32:59.856Z,24.13
2018-11-13T11:38:03.341Z,23.77
2018-11-13T11:43:07.006Z,23.20
2018-11-13T11:48:10.530Z,21.47
2018-11-13T11:53:13.967Z,23.07
2018-11-13T11:58:17.423Z,22.60
2018-11-13T12:03:20.918Z,22.83
2018-11-13T12:08:24.432Z,22.00
2018-11-13T12:13:27.833Z,21.77
2018-11-13T12:18:31.256Z,23.10
2018-11-13T12:23:34.783Z,22.20
2018-11-13T12:28:38.243Z,21.93
2018-11-13T12:33:41.661Z,22.03
2018-11-13T12:38:45.042Z,21.43
2018-11-13T12:43:48.447Z,21.53
2018-11-13T12:48:51.922Z,22.97
2018-11-13T12:53:55.233Z,22.37
2018-11-13T12:58:58.605Z,23.77
2018-11-13T13:04:02.030Z,20.47
2018-11-13T13:09:07.966Z,16.73
2018-11-13T13:14:15.264Z,9.30
2018-11-13T13:19:19.548Z,7.40
2018-11-13T13:24:23.002Z,6.00
2018-11-13T13:29:26.587Z,6.30
2018-11-13T13:34:29.966Z,5.40
2018-11-13T13:39:33.450Z,4.53
2018-11-13T13:44:36.866Z,4.23
2018-11-13T13:49:40.251Z,4.83
2018-11-13T13:54:43.693Z,3.40
2018-11-13T13:59:47.089Z,3.70
2018-11-13T14:04:50.514Z,3.80
2018-11-13T14:09:54.036Z,4.30
2018-11-13T14:14:57.597Z,4.00
2018-11-13T14:20:00.927Z,4.17
2018-11-13T14:25:04.430Z,4.00
2018-11-13T14:30:13.568Z,4.40
2018-11-13T14:35:17.246Z,4.23
2018-11-13T14:40:25.811Z,5.07
2018-11-13T14:45:29.615Z,4.30
2018-11-13T14:50:34.408Z,4.00
2018-11-13T14:55:40.048Z,4.40
2018-11-13T15:00:43.952Z,4.37
2018-11-13T15:05:47.375Z,4.30
2018-11-13T15:10:51.954Z,4.57
2018-11-13T15:15:55.467Z,4.30
2018-11-13T15:20:58.890Z,4.30
2018-11-13T15:26:02.354Z,3.90
2018-11-13T15:31:05.815Z,3.65
2018-11-13T15:36:09.167Z,4.03
2018-11-13T15:41:12.579Z,3.77
2018-11-13T15:46:15.997Z,3.43
2018-11-13T15:51:19.442Z,3.10
2018-11-13T15:56:22.827Z,2.90
2018-11-13T16:01:26.219Z,3.03
2018-11-13T16:06:29.735Z,3.13
2018-11-13T16:11:33.142Z,2.60
2018-11-13T16:16:36.577Z,2.63
2018-11-13T16:21:40.113Z,2.57
2018-11-13T16:26:43.641Z,3.40
2018-11-13T16:31:47.018Z,3.93
2018-11-13T16:36:50.484Z,2.90
2018-11-13T16:41:53.924Z,2.97
2018-11-13T16:46:57.226Z,3.40
2018-11-13T16:52:00.670Z,3.40
2018-11-13T16:57:04.102Z,3.23
2018-11-13T17:02:07.776Z,3.13
2018-11-13T17:07:11.411Z,3.20
2018-11-13T17:12:14.755Z,2.60
2018-11-13T17:17:18.115Z,2.50
2018-11-13T17:22:21.514Z,2.43
2018-11-13T17:27:25.048Z,2.20
2018-11-13T17:32:28.474Z,2.53
2018-11-13T17:37:31.892Z,2.10
2018-11-13T17:42:35.402Z,1.70
2018-11-13T17:47:38.850Z,1.90
2018-11-13T17:52:43.242Z,1.70
2018-11-13T17:57:47.666Z,2.07
2018-11-13T18:02:51.244Z,1.70
2018-11-13T18:07:55.350Z,1.90
2018-11-13T18:12:58.774Z,1.73
2018-11-13T18:18:02.512Z,1.47
2018-11-13T18:23:06.786Z,1.83
2018-11-13T18:28:10.278Z,1.70
2018-11-13T18:33:13.676Z,1.83
2018-11-13T18:38:17.151Z,1.70
2018-11-13T18:43:20.642Z,1.70
2018-11-13T18:48:24.042Z,1.60
2018-11-13T18:53:27.766Z,1.70
2018-11-13T18:58:31.408Z,1.77
2018-11-13T19:03:35.077Z,1.80
2018-11-13T19:08:38.433Z,1.70
2018-11-13T19:13:42.200Z,1.97
2018-11-13T19:18:45.632Z,1.90
2018-11-13T19:23:49.001Z,1.70
2018-11-13T19:28:53.812Z,1.70
2018-11-13T19:33:57.963Z,1.40
2018-11-13T19:39:01.849Z,1.60
2018-11-13T19:44:06.433Z,1.90
2018-11-13T19:49:10.565Z,1.70
2018-11-13T19:54:14.784Z,1.80
2018-11-13T19:59:18.939Z,1.83
2018-11-13T20:04:23.163Z,1.63
2018-11-13T20:09:27.249Z,2.07
2018-11-13T20:14:30.976Z,2.13
2018-11-13T20:19:34.483Z,2.20
2018-11-13T20:24:37.962Z,1.70
2018-11-13T20:29:41.355Z,1.97
2018-11-13T20:34:44.871Z,2.47
2018-11-13T20:39:48.214Z,1.93
2018-11-13T20:44:51.595Z,2.20
2018-11-13T20:49:54.978Z,2.00
2018-11-13T20:54:59.354Z,2.00
2018-11-13T21:00:02.815Z,1.83
2018-11-13T21:05:06.462Z,2.10
2018-11-13T21:10:12.283Z,2.27
2018-11-13T21:15:17.040Z,5.43
2018-11-13T21:20:21.003Z,3.50
2018-11-13T21:25:25.394Z,3.33
2018-11-13T21:30:28.861Z,3.00
2018-11-13T21:35:32.331Z,3.30
2018-11-13T21:40:35.727Z,2.90
2018-11-13T21:45:39.110Z,2.93
2018-11-13T21:50:42.563Z,3.10
2018-11-13T21:55:46.055Z,3.27
2018-11-13T22:00:49.642Z,2.90
2018-11-13T22:05:53.319Z,3.00
2018-11-13T22:10:56.683Z,3.20
2018-11-13T22:16:00.058Z,3.00
2018-11-13T22:21:04.226Z,3.07
2018-11-13T22:26:07.742Z,3.00
2018-11-13T22:31:11.572Z,3.43
2018-11-13T22:36:15.061Z,3.30
2018-11-13T22:41:18.638Z,2.90
2018-11-13T22:46:21.917Z,2.87
2018-11-13T22:51:25.283Z,2.60
2018-11-13T22:56:28.790Z,2.97
2018-11-13T23:01:32.202Z,3.07
2018-11-13T23:06:35.564Z,3.00
2018-11-13T23:11:39.006Z,3.00
2018-11-13T23:16:42.366Z,2.80
2018-11-13T23:21:45.742Z,3.00
2018-11-13T23:26:49.134Z,2.90
2018-11-13T23:31:52.496Z,2.97
2018-11-13T23:36:55.893Z,3.00
2018-11-13T23:41:59.287Z,3.43
2018-11-13T23:47:02.671Z,3.10
2018-11-13T23:52:06.438Z,3.00
2018-11-13T23:57:09.859Z,3.13
